sensor_id;sensor_type;location;lat;lon;timestamp;P1;durP1;ratioP1;P2;durP2;ratioP2
11681;SDS011;5897;42.640;23.310;2023-02-15T00:00:10;32.47;;;22.77;;
11681;SDS011;5897;42.640;23.310;2023-02-15T00:02:37;31.80;;;21.90;;
11681;SDS011;5897;42.640;23.310;2023-02-15T00:05:04;31.83;;;22.73;;
11681;SDS011;5897;42.640;23.310;2023-02-15T00:07:33;31.47;;;21.90;;
11681;SDS011;5897;42.640;23.310;2023-02-15T00:09:59;31.67;;;21.50;;
11681;SDS011;5897;42.640;23.310;2023-02-15T00:12:26;31.27;;;22.90;;
11681;SDS011;5897;42.640;23.310;2023-02-15T00:14:53;28.27;;;21.17;;
11681;SDS011;5897;42.640;23.310;2023-02-15T00:17:21;32.67;;;22.43;;
11681;SDS011;5897;42.640;23.310;2023-02-15T00:19:48;33.07;;;22.13;;
11681;SDS011;5897;42.640;23.310;2023-02-15T00:22:15;32.17;;;22.27;;
11681;SDS011;5897;42.640;23.310;2023-02-15T00:24:42;28.83;;;20.97;;
11681;SDS011;5897;42.640;23.310;2023-02-15T00:27:09;29.70;;;21.10;;
11681;SDS011;5897;42.640;23.310;2023-02-15T00:29:35;27.87;;;19.73;;
11681;SDS011;5897;42.640;23.310;2023-02-15T00:32:02;29.47;;;21.20;;
11681;SDS011;5897;42.640;23.310;2023-02-15T00:34:31;29.17;;;21.40;;
11681;SDS011;5897;42.640;23.310;2023-02-15T00:36:58;26.70;;;19.67;;
11681;SDS011;5897;42.640;23.310;2023-02-15T00:39:25;31.27;;;20.73;;
11681;SDS011;5897;42.640;23.310;2023-02-15T00:41:52;30.67;;;20.53;;
11681;SDS011;5897;42.640;23.310;2023-02-15T00:44:19;29.03;;;20.93;;
11681;SDS011;5897;42.640;23.310;2023-02-15T00:46:46;27.43;;;19.10;;
11681;SDS011;5897;42.640;23.310;2023-02-15T00:49:12;27.73;;;18.77;;
11681;SDS011;5897;42.640;23.310;2023-02-15T00:51:41;27.37;;;19.60;;
11681;SDS011;5897;42.640;23.310;2023-02-15T00:54:07;27.47;;;19.40;;
11681;SDS011;5897;42.640;23.310;2023-02-15T00:56:34;26.73;;;19.10;;
11681;SDS011;5897;42.640;23.310;2023-02-15T00:59:01;29.43;;;20.77;;
11681;SDS011;5897;42.640;23.310;2023-02-15T01:01:28;28.63;;;20.17;;
11681;SDS011;5897;42.640;23.310;2023-02-15T01:03:55;29.60;;;20.90;;
11681;SDS011;5897;42.640;23.310;2023-02-15T01:06:22;29.50;;;19.63;;
11681;SDS011;5897;42.640;23.310;2023-02-15T01:08:50;28.33;;;20.13;;
11681;SDS011;5897;42.640;23.310;2023-02-15T01:11:18;27.97;;;20.20;;
11681;SDS011;5897;42.640;23.310;2023-02-15T01:13:48;28.60;;;19.77;;
11681;SDS011;5897;42.640;23.310;2023-02-15T01:16:15;29.70;;;20.67;;
11681;SDS011;5897;42.640;23.310;2023-02-15T01:18:43;28.80;;;20.07;;
11681;SDS011;5897;42.640;23.310;2023-02-15T01:21:10;29.07;;;20.27;;
11681;SDS011;5897;42.640;23.310;2023-02-15T01:23:39;27.90;;;20.30;;
11681;SDS011;5897;42.640;23.310;2023-02-15T01:26:07;31.27;;;20.23;;
11681;SDS011;5897;42.640;23.310;2023-02-15T01:28:34;29.77;;;20.60;;
11681;SDS011;5897;42.640;23.310;2023-02-15T01:31:04;30.53;;;20.60;;
11681;SDS011;5897;42.640;23.310;2023-02-15T01:33:32;27.83;;;17.80;;
11681;SDS011;5897;42.640;23.310;2023-02-15T01:35:59;27.80;;;20.30;;
11681;SDS011;5897;42.640;23.310;2023-02-15T01:38:26;27.97;;;20.43;;
11681;SDS011;5897;42.640;23.310;2023-02-15T01:40:53;28.57;;;19.57;;
11681;SDS011;5897;42.640;23.310;2023-02-15T01:43:42;28.50;;;19.97;;
11681;SDS011;5897;42.640;23.310;2023-02-15T01:46:10;28.70;;;20.67;;
11681;SDS011;5897;42.640;23.310;2023-02-15T01:48:40;24.60;;;18.73;;
11681;SDS011;5897;42.640;23.310;2023-02-15T01:51:11;28.27;;;19.63;;
11681;SDS011;5897;42.640;23.310;2023-02-15T01:53:40;26.03;;;18.90;;
11681;SDS011;5897;42.640;23.310;2023-02-15T01:56:11;27.87;;;19.73;;
11681;SDS011;5897;42.640;23.310;2023-02-15T01:58:42;29.27;;;20.87;;
11681;SDS011;5897;42.640;23.310;2023-02-15T02:01:10;27.57;;;19.17;;
11681;SDS011;5897;42.640;23.310;2023-02-15T02:03:38;29.83;;;20.20;;
11681;SDS011;5897;42.640;23.310;2023-02-15T02:06:10;29.10;;;19.63;;
11681;SDS011;5897;42.640;23.310;2023-02-15T02:08:37;27.60;;;19.60;;
11681;SDS011;5897;42.640;23.310;2023-02-15T02:11:09;27.43;;;18.60;;
11681;SDS011;5897;42.640;23.310;2023-02-15T02:13:36;26.17;;;17.77;;
11681;SDS011;5897;42.640;23.310;2023-02-15T02:16:07;28.97;;;19.40;;
11681;SDS011;5897;42.640;23.310;2023-02-15T02:18:41;25.03;;;18.07;;
11681;SDS011;5897;42.640;23.310;2023-02-15T02:21:31;28.40;;;20.13;;
11681;SDS011;5897;42.640;23.310;2023-02-15T02:24:30;25.17;;;19.73;;
11681;SDS011;5897;42.640;23.310;2023-02-15T02:27:21;24.37;;;17.33;;
11681;SDS011;5897;42.640;23.310;2023-02-15T02:30:04;24.37;;;17.70;;
11681;SDS011;5897;42.640;23.310;2023-02-15T02:32:53;25.70;;;18.13;;
11681;SDS011;5897;42.640;23.310;2023-02-15T02:35:38;27.00;;;18.50;;
11681;SDS011;5897;42.640;23.310;2023-02-15T02:38:11;28.43;;;19.00;;
11681;SDS011;5897;42.640;23.310;2023-02-15T02:40:50;26.40;;;18.80;;
11681;SDS011;5897;42.640;23.310;2023-02-15T02:43:25;27.13;;;19.30;;
11681;SDS011;5897;42.640;23.310;2023-02-15T02:45:58;26.67;;;18.40;;
11681;SDS011;5897;42.640;23.310;2023-02-15T02:48:32;25.67;;;18.40;;
11681;SDS011;5897;42.640;23.310;2023-02-15T02:51:00;24.90;;;17.80;;
11681;SDS011;5897;42.640;23.310;2023-02-15T02:53:27;25.73;;;18.57;;
11681;SDS011;5897;42.640;23.310;2023-02-15T02:55:57;25.00;;;18.37;;
11681;SDS011;5897;42.640;23.310;2023-02-15T02:58:29;26.23;;;18.17;;
11681;SDS011;5897;42.640;23.310;2023-02-15T03:01:01;25.50;;;18.93;;
11681;SDS011;5897;42.640;23.310;2023-02-15T03:03:34;23.67;;;17.13;;
11681;SDS011;5897;42.640;23.310;2023-02-15T03:06:05;26.03;;;17.37;;
11681;SDS011;5897;42.640;23.310;2023-02-15T03:08:37;24.07;;;18.23;;
11681;SDS011;5897;42.640;23.310;2023-02-15T03:11:08;26.27;;;17.97;;
11681;SDS011;5897;42.640;23.310;2023-02-15T03:13:37;25.03;;;17.60;;
11681;SDS011;5897;42.640;23.310;2023-02-15T03:16:05;22.90;;;17.67;;
11681;SDS011;5897;42.640;23.310;2023-02-15T03:18:54;23.77;;;17.73;;
11681;SDS011;5897;42.640;23.310;2023-02-15T03:21:27;25.27;;;18.57;;
11681;SDS011;5897;42.640;23.310;2023-02-15T03:24:00;24.10;;;17.63;;
11681;SDS011;5897;42.640;23.310;2023-02-15T03:26:31;27.10;;;18.77;;
11681;SDS011;5897;42.640;23.310;2023-02-15T03:29:00;23.97;;;17.83;;
11681;SDS011;5897;42.640;23.310;2023-02-15T03:31:31;23.33;;;17.30;;
11681;SDS011;5897;42.640;23.310;2023-02-15T03:34:03;23.47;;;17.47;;
11681;SDS011;5897;42.640;23.310;2023-02-15T03:36:34;26.33;;;18.67;;
11681;SDS011;5897;42.640;23.310;2023-02-15T03:39:09;22.50;;;16.83;;
11681;SDS011;5897;42.640;23.310;2023-02-15T03:41:40;23.30;;;16.97;;
11681;SDS011;5897;42.640;23.310;2023-02-15T03:44:13;23.27;;;16.43;;
11681;SDS011;5897;42.640;23.310;2023-02-15T03:46:43;25.23;;;17.03;;
11681;SDS011;5897;42.640;23.310;2023-02-15T03:49:17;23.47;;;16.63;;
11681;SDS011;5897;42.640;23.310;2023-02-15T03:51:48;21.97;;;15.80;;
11681;SDS011;5897;42.640;23.310;2023-02-15T03:54:18;27.27;;;17.33;;
11681;SDS011;5897;42.640;23.310;2023-02-15T03:57:02;22.00;;;16.30;;
11681;SDS011;5897;42.640;23.310;2023-02-15T03:59:47;21.40;;;15.57;;
11681;SDS011;5897;42.640;23.310;2023-02-15T04:02:32;24.13;;;16.63;;
11681;SDS011;5897;42.640;23.310;2023-02-15T04:05:06;24.27;;;16.93;;
11681;SDS011;5897;42.640;23.310;2023-02-15T04:07:33;22.87;;;16.00;;
11681;SDS011;5897;42.640;23.310;2023-02-15T04:09:59;22.80;;;17.13;;
11681;SDS011;5897;42.640;23.310;2023-02-15T04:12:44;24.33;;;16.97;;
11681;SDS011;5897;42.640;23.310;2023-02-15T04:15:11;27.37;;;18.07;;
11681;SDS011;5897;42.640;23.310;2023-02-15T04:17:56;23.20;;;16.83;;
11681;SDS011;5897;42.640;23.310;2023-02-15T04:20:24;25.50;;;18.27;;
11681;SDS011;5897;42.640;23.310;2023-02-15T04:23:08;24.83;;;17.97;;
11681;SDS011;5897;42.640;23.310;2023-02-15T04:25:52;24.10;;;17.57;;
11681;SDS011;5897;42.640;23.310;2023-02-15T04:28:19;25.10;;;17.73;;
11681;SDS011;5897;42.640;23.310;2023-02-15T04:30:46;24.30;;;17.00;;
11681;SDS011;5897;42.640;23.310;2023-02-15T04:33:13;28.73;;;18.87;;
11681;SDS011;5897;42.640;23.310;2023-02-15T04:35:42;24.73;;;18.53;;
11681;SDS011;5897;42.640;23.310;2023-02-15T04:38:11;23.43;;;16.27;;
11681;SDS011;5897;42.640;23.310;2023-02-15T04:40:37;25.67;;;17.07;;
11681;SDS011;5897;42.640;23.310;2023-02-15T04:43:04;25.47;;;17.60;;
11681;SDS011;5897;42.640;23.310;2023-02-15T04:45:31;27.47;;;19.13;;
11681;SDS011;5897;42.640;23.310;2023-02-15T04:47:58;23.80;;;17.17;;
11681;SDS011;5897;42.640;23.310;2023-02-15T04:50:25;25.50;;;18.07;;
11681;SDS011;5897;42.640;23.310;2023-02-15T04:52:53;24.53;;;17.60;;
11681;SDS011;5897;42.640;23.310;2023-02-15T04:55:20;23.77;;;16.73;;
11681;SDS011;5897;42.640;23.310;2023-02-15T04:57:46;23.50;;;16.90;;
11681;SDS011;5897;42.640;23.310;2023-02-15T05:00:13;25.60;;;17.63;;
11681;SDS011;5897;42.640;23.310;2023-02-15T05:02:41;23.60;;;16.33;;
11681;SDS011;5897;42.640;23.310;2023-02-15T05:05:08;24.30;;;16.70;;
11681;SDS011;5897;42.640;23.310;2023-02-15T05:07:38;22.90;;;16.07;;
11681;SDS011;5897;42.640;23.310;2023-02-15T05:10:06;27.27;;;18.63;;
11681;SDS011;5897;42.640;23.310;2023-02-15T05:12:34;25.90;;;18.17;;
11681;SDS011;5897;42.640;23.310;2023-02-15T05:15:01;26.60;;;18.00;;
11681;SDS011;5897;42.640;23.310;2023-02-15T05:17:28;25.07;;;17.83;;
11681;SDS011;5897;42.640;23.310;2023-02-15T05:19:54;24.27;;;18.23;;
11681;SDS011;5897;42.640;23.310;2023-02-15T05:22:21;24.43;;;17.37;;
11681;SDS011;5897;42.640;23.310;2023-02-15T05:24:48;24.77;;;17.93;;
11681;SDS011;5897;42.640;23.310;2023-02-15T05:27:33;25.83;;;17.90;;
11681;SDS011;5897;42.640;23.310;2023-02-15T05:30:18;23.37;;;17.63;;
11681;SDS011;5897;42.640;23.310;2023-02-15T05:32:45;23.07;;;17.33;;
11681;SDS011;5897;42.640;23.310;2023-02-15T05:35:12;27.03;;;17.57;;
11681;SDS011;5897;42.640;23.310;2023-02-15T05:37:40;23.60;;;17.20;;
11681;SDS011;5897;42.640;23.310;2023-02-15T05:40:08;23.63;;;17.47;;
11681;SDS011;5897;42.640;23.310;2023-02-15T05:42:36;22.90;;;17.07;;
11681;SDS011;5897;42.640;23.310;2023-02-15T05:45:03;24.23;;;17.47;;
11681;SDS011;5897;42.640;23.310;2023-02-15T05:47:31;25.37;;;17.80;;
11681;SDS011;5897;42.640;23.310;2023-02-15T05:49:57;24.27;;;17.60;;
11681;SDS011;5897;42.640;23.310;2023-02-15T05:52:24;25.37;;;18.17;;
11681;SDS011;5897;42.640;23.310;2023-02-15T05:54:51;25.00;;;18.07;;
11681;SDS011;5897;42.640;23.310;2023-02-15T05:57:19;25.53;;;17.53;;
11681;SDS011;5897;42.640;23.310;2023-02-15T05:59:47;24.03;;;17.57;;
11681;SDS011;5897;42.640;23.310;2023-02-15T06:02:14;24.57;;;17.17;;
11681;SDS011;5897;42.640;23.310;2023-02-15T06:04:40;24.87;;;17.37;;
11681;SDS011;5897;42.640;23.310;2023-02-15T06:07:07;25.07;;;17.23;;
11681;SDS011;5897;42.640;23.310;2023-02-15T06:09:34;24.27;;;16.77;;
11681;SDS011;5897;42.640;23.310;2023-02-15T06:12:01;23.50;;;18.03;;
11681;SDS011;5897;42.640;23.310;2023-02-15T06:14:28;25.83;;;17.73;;
11681;SDS011;5897;42.640;23.310;2023-02-15T06:16:56;22.20;;;15.20;;
11681;SDS011;5897;42.640;23.310;2023-02-15T06:19:23;22.43;;;16.20;;
11681;SDS011;5897;42.640;23.310;2023-02-15T06:21:50;24.17;;;15.60;;
11681;SDS011;5897;42.640;23.310;2023-02-15T06:24:17;22.50;;;16.43;;
11681;SDS011;5897;42.640;23.310;2023-02-15T06:26:44;21.40;;;16.10;;
11681;SDS011;5897;42.640;23.310;2023-02-15T06:29:11;22.27;;;16.60;;
11681;SDS011;5897;42.640;23.310;2023-02-15T06:31:38;22.07;;;15.67;;
11681;SDS011;5897;42.640;23.310;2023-02-15T06:34:06;20.63;;;14.60;;
11681;SDS011;5897;42.640;23.310;2023-02-15T06:36:33;20.87;;;14.67;;
11681;SDS011;5897;42.640;23.310;2023-02-15T06:39:00;19.60;;;14.83;;
11681;SDS011;5897;42.640;23.310;2023-02-15T06:41:27;22.23;;;15.43;;
11681;SDS011;5897;42.640;23.310;2023-02-15T06:43:54;19.47;;;15.27;;
11681;SDS011;5897;42.640;23.310;2023-02-15T06:46:20;22.83;;;15.63;;
11681;SDS011;5897;42.640;23.310;2023-02-15T06:48:47;20.60;;;15.52;;
11681;SDS011;5897;42.640;23.310;2023-02-15T06:51:16;21.38;;;15.25;;
11681;SDS011;5897;42.640;23.310;2023-02-15T06:53:42;19.60;;;14.60;;
11681;SDS011;5897;42.640;23.310;2023-02-15T06:56:10;20.50;;;14.30;;
11681;SDS011;5897;42.640;23.310;2023-02-15T06:58:37;18.40;;;13.07;;
11681;SDS011;5897;42.640;23.310;2023-02-15T07:01:04;19.05;;;14.18;;
11681;SDS011;5897;42.640;23.310;2023-02-15T07:03:32;16.80;;;12.90;;
11681;SDS011;5897;42.640;23.310;2023-02-15T07:05:59;19.55;;;14.32;;
11681;SDS011;5897;42.640;23.310;2023-02-15T07:08:29;16.40;;;13.05;;
11681;SDS011;5897;42.640;23.310;2023-02-15T07:10:56;17.63;;;12.77;;
11681;SDS011;5897;42.640;23.310;2023-02-15T07:13:43;16.83;;;12.45;;
11681;SDS011;5897;42.640;23.310;2023-02-15T07:16:09;16.35;;;11.95;;
11681;SDS011;5897;42.640;23.310;2023-02-15T07:18:36;17.33;;;12.43;;
11681;SDS011;5897;42.640;23.310;2023-02-15T07:21:03;15.52;;;11.90;;
11681;SDS011;5897;42.640;23.310;2023-02-15T07:23:34;17.48;;;12.25;;
11681;SDS011;5897;42.640;23.310;2023-02-15T07:26:01;16.33;;;12.43;;
11681;SDS011;5897;42.640;23.310;2023-02-15T07:28:28;18.83;;;13.23;;
11681;SDS011;5897;42.640;23.310;2023-02-15T07:30:55;15.20;;;11.32;;
11681;SDS011;5897;42.640;23.310;2023-02-15T07:33:22;16.80;;;11.70;;
11681;SDS011;5897;42.640;23.310;2023-02-15T07:35:49;19.33;;;12.30;;
11681;SDS011;5897;42.640;23.310;2023-02-15T07:38:18;15.45;;;11.30;;
11681;SDS011;5897;42.640;23.310;2023-02-15T07:40:46;17.35;;;12.38;;
11681;SDS011;5897;42.640;23.310;2023-02-15T07:43:13;15.57;;;11.68;;
11681;SDS011;5897;42.640;23.310;2023-02-15T07:45:40;16.35;;;11.95;;
11681;SDS011;5897;42.640;23.310;2023-02-15T07:48:07;14.63;;;11.20;;
11681;SDS011;5897;42.640;23.310;2023-02-15T07:50:34;17.20;;;12.18;;
11681;SDS011;5897;42.640;23.310;2023-02-15T07:53:01;13.13;;;11.40;;
11681;SDS011;5897;42.640;23.310;2023-02-15T07:55:29;15.98;;;12.20;;
11681;SDS011;5897;42.640;23.310;2023-02-15T07:57:57;17.35;;;13.55;;
11681;SDS011;5897;42.640;23.310;2023-02-15T08:00:24;14.98;;;11.68;;
11681;SDS011;5897;42.640;23.310;2023-02-15T08:02:52;14.93;;;12.15;;
11681;SDS011;5897;42.640;23.310;2023-02-15T08:05:34;13.85;;;11.43;;
11681;SDS011;5897;42.640;23.310;2023-02-15T08:08:00;15.77;;;11.25;;
11681;SDS011;5897;42.640;23.310;2023-02-15T08:10:27;17.10;;;13.27;;
11681;SDS011;5897;42.640;23.310;2023-02-15T08:13:09;17.35;;;12.10;;
11681;SDS011;5897;42.640;23.310;2023-02-15T08:15:36;15.82;;;12.02;;
11681;SDS011;5897;42.640;23.310;2023-02-15T08:18:03;17.00;;;11.80;;
11681;SDS011;5897;42.640;23.310;2023-02-15T08:20:30;16.25;;;11.85;;
11681;SDS011;5897;42.640;23.310;2023-02-15T08:22:57;15.85;;;12.38;;
11681;SDS011;5897;42.640;23.310;2023-02-15T08:25:24;15.18;;;11.32;;
11681;SDS011;5897;42.640;23.310;2023-02-15T08:27:51;18.52;;;12.35;;
11681;SDS011;5897;42.640;23.310;2023-02-15T08:30:19;14.63;;;11.15;;
11681;SDS011;5897;42.640;23.310;2023-02-15T08:32:46;15.77;;;12.48;;
11681;SDS011;5897;42.640;23.310;2023-02-15T08:35:13;14.90;;;11.32;;
11681;SDS011;5897;42.640;23.310;2023-02-15T08:37:39;13.50;;;11.07;;
11681;SDS011;5897;42.640;23.310;2023-02-15T08:40:07;14.98;;;11.30;;
11681;SDS011;5897;42.640;23.310;2023-02-15T08:42:34;14.68;;;11.90;;
11681;SDS011;5897;42.640;23.310;2023-02-15T08:45:01;16.75;;;11.82;;
11681;SDS011;5897;42.640;23.310;2023-02-15T08:47:29;14.95;;;10.60;;
11681;SDS011;5897;42.640;23.310;2023-02-15T08:49:56;15.38;;;11.43;;
11681;SDS011;5897;42.640;23.310;2023-02-15T08:52:23;13.40;;;10.95;;
11681;SDS011;5897;42.640;23.310;2023-02-15T08:54:50;14.45;;;11.27;;
11681;SDS011;5897;42.640;23.310;2023-02-15T08:57:16;13.85;;;10.30;;
11681;SDS011;5897;42.640;23.310;2023-02-15T08:59:43;13.85;;;10.85;;
11681;SDS011;5897;42.640;23.310;2023-02-15T09:02:10;12.43;;;10.43;;
11681;SDS011;5897;42.640;23.310;2023-02-15T09:04:38;14.52;;;11.00;;
11681;SDS011;5897;42.640;23.310;2023-02-15T09:07:05;12.90;;;10.88;;
11681;SDS011;5897;42.640;23.310;2023-02-15T09:09:32;14.77;;;11.15;;
11681;SDS011;5897;42.640;23.310;2023-02-15T09:11:59;16.45;;;12.38;;
11681;SDS011;5897;42.640;23.310;2023-02-15T09:14:26;13.30;;;11.27;;
11681;SDS011;5897;42.640;23.310;2023-02-15T09:16:53;16.13;;;12.57;;
11681;SDS011;5897;42.640;23.310;2023-02-15T09:19:20;16.42;;;13.20;;
11681;SDS011;5897;42.640;23.310;2023-02-15T09:21:49;16.15;;;12.35;;
11681;SDS011;5897;42.640;23.310;2023-02-15T09:24:16;17.25;;;13.85;;
11681;SDS011;5897;42.640;23.310;2023-02-15T09:26:45;17.55;;;13.63;;
11681;SDS011;5897;42.640;23.310;2023-02-15T09:29:14;21.23;;;14.10;;
11681;SDS011;5897;42.640;23.310;2023-02-15T09:31:42;19.80;;;14.05;;
11681;SDS011;5897;42.640;23.310;2023-02-15T09:34:10;17.77;;;14.13;;
11681;SDS011;5897;42.640;23.310;2023-02-15T09:36:38;16.75;;;14.05;;
11681;SDS011;5897;42.640;23.310;2023-02-15T09:39:07;19.73;;;14.40;;
11681;SDS011;5897;42.640;23.310;2023-02-15T09:41:40;18.85;;;13.90;;
11681;SDS011;5897;42.640;23.310;2023-02-15T09:44:32;21.30;;;14.38;;
11681;SDS011;5897;42.640;23.310;2023-02-15T09:47:10;16.05;;;12.88;;
11681;SDS011;5897;42.640;23.310;2023-02-15T09:49:49;15.40;;;12.07;;
11681;SDS011;5897;42.640;23.310;2023-02-15T09:52:34;15.77;;;12.05;;
11681;SDS011;5897;42.640;23.310;2023-02-15T09:55:17;16.02;;;12.15;;
11681;SDS011;5897;42.640;23.310;2023-02-15T09:58:01;13.80;;;11.45;;
11681;SDS011;5897;42.640;23.310;2023-02-15T10:00:37;12.88;;;11.30;;
11681;SDS011;5897;42.640;23.310;2023-02-15T10:03:16;13.82;;;11.27;;
11681;SDS011;5897;42.640;23.310;2023-02-15T10:05:55;15.57;;;12.38;;
11681;SDS011;5897;42.640;23.310;2023-02-15T10:11:29;15.68;;;12.98;;
11681;SDS011;5897;42.640;23.310;2023-02-15T10:14:14;15.75;;;12.45;;
11681;SDS011;5897;42.640;23.310;2023-02-15T10:17:05;15.30;;;12.80;;
11681;SDS011;5897;42.640;23.310;2023-02-15T10:19:44;19.13;;;14.00;;
11681;SDS011;5897;42.640;23.310;2023-02-15T10:22:19;17.58;;;13.55;;
11681;SDS011;5897;42.640;23.310;2023-02-15T10:27:48;13.77;;;11.32;;
11681;SDS011;5897;42.640;23.310;2023-02-15T10:30:15;14.48;;;12.10;;
11681;SDS011;5897;42.640;23.310;2023-02-15T10:32:54;16.23;;;13.15;;
11681;SDS011;5897;42.640;23.310;2023-02-15T10:35:26;16.77;;;13.20;;
11681;SDS011;5897;42.640;23.310;2023-02-15T10:38:03;14.82;;;12.25;;
11681;SDS011;5897;42.640;23.310;2023-02-15T10:40:37;15.15;;;13.20;;
11681;SDS011;5897;42.640;23.310;2023-02-15T10:43:16;15.05;;;13.43;;
11681;SDS011;5897;42.640;23.310;2023-02-15T10:45:56;15.80;;;12.98;;
11681;SDS011;5897;42.640;23.310;2023-02-15T10:48:35;15.93;;;13.02;;
11681;SDS011;5897;42.640;23.310;2023-02-15T10:51:11;16.27;;;14.50;;
11681;SDS011;5897;42.640;23.310;2023-02-15T10:53:50;17.70;;;14.52;;
11681;SDS011;5897;42.640;23.310;2023-02-15T10:56:34;17.60;;;14.98;;
11681;SDS011;5897;42.640;23.310;2023-02-15T10:59:09;18.77;;;14.20;;
11681;SDS011;5897;42.640;23.310;2023-02-15T11:01:46;19.15;;;14.35;;
11681;SDS011;5897;42.640;23.310;2023-02-15T11:07:08;19.58;;;14.57;;
11681;SDS011;5897;42.640;23.310;2023-02-15T11:09:43;18.10;;;14.73;;
11681;SDS011;5897;42.640;23.310;2023-02-15T11:12:14;19.73;;;15.52;;
11681;SDS011;5897;42.640;23.310;2023-02-15T11:14:48;16.83;;;14.07;;
11681;SDS011;5897;42.640;23.310;2023-02-15T11:17:20;17.80;;;14.77;;
11681;SDS011;5897;42.640;23.310;2023-02-15T11:19:55;16.33;;;13.52;;
11681;SDS011;5897;42.640;23.310;2023-02-15T11:22:27;17.73;;;14.10;;
11681;SDS011;5897;42.640;23.310;2023-02-15T11:24:56;19.08;;;15.60;;
11681;SDS011;5897;42.640;23.310;2023-02-15T11:27:26;17.40;;;15.52;;
11681;SDS011;5897;42.640;23.310;2023-02-15T11:29:59;16.58;;;14.77;;
11681;SDS011;5897;42.640;23.310;2023-02-15T11:32:29;17.80;;;14.65;;
11681;SDS011;5897;42.640;23.310;2023-02-15T11:35:00;18.35;;;15.75;;
11681;SDS011;5897;42.640;23.310;2023-02-15T11:37:33;20.88;;;15.80;;
11681;SDS011;5897;42.640;23.310;2023-02-15T11:40:03;16.80;;;14.68;;
11681;SDS011;5897;42.640;23.310;2023-02-15T11:42:43;18.17;;;14.70;;
11681;SDS011;5897;42.640;23.310;2023-02-15T11:45:19;17.30;;;14.80;;
11681;SDS011;5897;42.640;23.310;2023-02-15T11:47:51;14.80;;;13.30;;
11681;SDS011;5897;42.640;23.310;2023-02-15T11:50:20;18.13;;;14.70;;
11681;SDS011;5897;42.640;23.310;2023-02-15T11:52:49;17.20;;;14.32;;
11681;SDS011;5897;42.640;23.310;2023-02-15T11:55:20;17.02;;;15.00;;
11681;SDS011;5897;42.640;23.310;2023-02-15T11:57:50;16.27;;;14.48;;
11681;SDS011;5897;42.640;23.310;2023-02-15T12:00:26;15.95;;;14.20;;
11681;SDS011;5897;42.640;23.310;2023-02-15T12:03:02;18.23;;;14.80;;
11681;SDS011;5897;42.640;23.310;2023-02-15T12:05:34;16.98;;;14.90;;
11681;SDS011;5897;42.640;23.310;2023-02-15T12:08:08;16.23;;;13.88;;
11681;SDS011;5897;42.640;23.310;2023-02-15T12:10:41;18.50;;;14.75;;
11681;SDS011;5897;42.640;23.310;2023-02-15T12:13:17;15.80;;;14.07;;
11681;SDS011;5897;42.640;23.310;2023-02-15T12:15:47;17.73;;;14.65;;
11681;SDS011;5897;42.640;23.310;2023-02-15T12:18:20;18.52;;;15.00;;
11681;SDS011;5897;42.640;23.310;2023-02-15T12:20:58;16.60;;;14.80;;
11681;SDS011;5897;42.640;23.310;2023-02-15T12:23:25;18.08;;;14.93;;
11681;SDS011;5897;42.640;23.310;2023-02-15T12:25:55;16.92;;;15.05;;
11681;SDS011;5897;42.640;23.310;2023-02-15T12:28:25;17.65;;;15.48;;
11681;SDS011;5897;42.640;23.310;2023-02-15T12:30:57;18.75;;;15.40;;
11681;SDS011;5897;42.640;23.310;2023-02-15T12:33:26;17.10;;;15.30;;
11681;SDS011;5897;42.640;23.310;2023-02-15T12:35:57;19.63;;;15.82;;
11681;SDS011;5897;42.640;23.310;2023-02-15T12:38:26;18.48;;;16.02;;
11681;SDS011;5897;42.640;23.310;2023-02-15T12:40:57;17.63;;;15.70;;
11681;SDS011;5897;42.640;23.310;2023-02-15T12:43:26;18.25;;;15.68;;
11681;SDS011;5897;42.640;23.310;2023-02-15T12:46:01;17.35;;;15.35;;
11681;SDS011;5897;42.640;23.310;2023-02-15T12:48:40;17.10;;;15.18;;
11681;SDS011;5897;42.640;23.310;2023-02-15T12:51:07;17.52;;;15.02;;
11681;SDS011;5897;42.640;23.310;2023-02-15T12:53:36;17.77;;;15.73;;
11681;SDS011;5897;42.640;23.310;2023-02-15T12:56:04;17.70;;;15.02;;
11681;SDS011;5897;42.640;23.310;2023-02-15T12:58:32;18.48;;;14.85;;
11681;SDS011;5897;42.640;23.310;2023-02-15T13:01:10;18.77;;;16.77;;
11681;SDS011;5897;42.640;23.310;2023-02-15T13:03:39;18.98;;;16.30;;
11681;SDS011;5897;42.640;23.310;2023-02-15T13:06:22;18.20;;;15.75;;
11681;SDS011;5897;42.640;23.310;2023-02-15T13:08:49;17.67;;;15.73;;
11681;SDS011;5897;42.640;23.310;2023-02-15T13:11:19;20.85;;;17.05;;
11681;SDS011;5897;42.640;23.310;2023-02-15T13:13:51;18.40;;;15.77;;
11681;SDS011;5897;42.640;23.310;2023-02-15T13:16:24;18.55;;;15.15;;
11681;SDS011;5897;42.640;23.310;2023-02-15T13:18:56;17.73;;;15.82;;
11681;SDS011;5897;42.640;23.310;2023-02-15T13:21:30;17.42;;;15.60;;
11681;SDS011;5897;42.640;23.310;2023-02-15T13:24:04;18.65;;;15.50;;
11681;SDS011;5897;42.640;23.310;2023-02-15T13:26:32;17.92;;;16.02;;
11681;SDS011;5897;42.640;23.310;2023-02-15T13:29:03;20.30;;;16.02;;
11681;SDS011;5897;42.640;23.310;2023-02-15T13:31:36;20.58;;;17.10;;
11681;SDS011;5897;42.640;23.310;2023-02-15T13:34:08;17.83;;;16.10;;
11681;SDS011;5897;42.640;23.310;2023-02-15T13:36:39;17.80;;;15.90;;
11681;SDS011;5897;42.640;23.310;2023-02-15T13:39:14;19.52;;;16.08;;
11681;SDS011;5897;42.640;23.310;2023-02-15T13:41:48;18.48;;;16.08;;
11681;SDS011;5897;42.640;23.310;2023-02-15T13:44:23;20.35;;;15.75;;
11681;SDS011;5897;42.640;23.310;2023-02-15T13:47:02;17.15;;;15.38;;
11681;SDS011;5897;42.640;23.310;2023-02-15T13:49:38;18.55;;;15.73;;
11681;SDS011;5897;42.640;23.310;2023-02-15T13:52:16;18.10;;;16.10;;
11681;SDS011;5897;42.640;23.310;2023-02-15T13:54:49;18.63;;;15.82;;
11681;SDS011;5897;42.640;23.310;2023-02-15T14:00:30;17.55;;;15.65;;
11681;SDS011;5897;42.640;23.310;2023-02-15T14:03:16;18.58;;;16.23;;
11681;SDS011;5897;42.640;23.310;2023-02-15T14:06:04;19.05;;;16.67;;
11681;SDS011;5897;42.640;23.310;2023-02-15T14:08:52;19.48;;;16.17;;
11681;SDS011;5897;42.640;23.310;2023-02-15T14:11:33;19.10;;;17.02;;
11681;SDS011;5897;42.640;23.310;2023-02-15T14:14:14;21.15;;;17.27;;
11681;SDS011;5897;42.640;23.310;2023-02-15T14:17:07;19.38;;;16.90;;
11681;SDS011;5897;42.640;23.310;2023-02-15T14:19:45;20.00;;;16.75;;
11681;SDS011;5897;42.640;23.310;2023-02-15T14:22:18;19.63;;;16.95;;
11681;SDS011;5897;42.640;23.310;2023-02-15T14:24:58;19.63;;;16.30;;
11681;SDS011;5897;42.640;23.310;2023-02-15T14:27:38;22.80;;;17.10;;
11681;SDS011;5897;42.640;23.310;2023-02-15T14:30:13;22.50;;;18.42;;
11681;SDS011;5897;42.640;23.310;2023-02-15T14:32:45;21.10;;;17.40;;
11681;SDS011;5897;42.640;23.310;2023-02-15T14:35:16;22.85;;;17.65;;
11681;SDS011;5897;42.640;23.310;2023-02-15T14:37:46;21.80;;;18.50;;
11681;SDS011;5897;42.640;23.310;2023-02-15T14:40:19;21.48;;;18.02;;
11681;SDS011;5897;42.640;23.310;2023-02-15T14:43:19;21.23;;;18.25;;
11681;SDS011;5897;42.640;23.310;2023-02-15T14:45:54;23.52;;;19.13;;
11681;SDS011;5897;42.640;23.310;2023-02-15T14:48:24;26.83;;;18.50;;
11681;SDS011;5897;42.640;23.310;2023-02-15T14:50:57;25.33;;;19.58;;
11681;SDS011;5897;42.640;23.310;2023-02-15T14:56:22;22.13;;;18.83;;
11681;SDS011;5897;42.640;23.310;2023-02-15T14:59:02;23.55;;;19.83;;